Time;durP1;ratioP1;P1;durP2;ratioP2;P2;SDS_P1;SDS_P2;PMS_P1;PMS_P2;Temp;Humidity;BMP_temperature;BMP_pressure;BME280_temperature;BME280_humidity;BME280_pressure;Samples;Min_cycle;Max_cycle;Signal;HPM_P1;HPM_P2
2023/06/24 00:00:37;;;;;;;6.97;4.45;;;15.30;99.90;;;;;;5042628;28;20043;-77
2023/06/24 00:03:02;;;;;;;6.30;5.13;;;15.30;99.90;;;;;;5041468;28;20036;-77
2023/06/24 00:05:28;;;;;;;7.10;5.30;;;15.20;99.90;;;;;;5038687;28;20091;-77
2023/06/24 00:07:56;;;;;;;11.00;5.95;;;15.20;99.90;;;;;;5043161;28;20036;-77
2023/06/24 00:10:22;;;;;;;5.60;5.18;;;15.20;99.90;;;;;;5044205;28;20462;-77
2023/06/24 00:12:48;;;;;;;7.60;5.72;;;15.20;99.90;;;;;;5042422;28;20045;-77
2023/06/24 00:15:14;;;;;;;4.70;4.28;;;15.20;99.90;;;;;;5042995;28;20451;-77
2023/06/24 00:17:40;;;;;;;4.97;4.47;;;15.20;99.90;;;;;;5044766;28;20040;-77
2023/06/24 00:20:11;;;;;;;5.07;4.57;;;15.10;99.90;;;;;;5042697;28;20129;-76
2023/06/24 00:22:44;;;;;;;4.47;4.05;;;15.00;99.90;;;;;;5041658;28;20041;-77
2023/06/24 00:25:10;;;;;;;4.30;3.83;;;14.90;99.90;;;;;;5043057;28;20453;-76
2023/06/24 00:27:35;;;;;;;10.30;5.45;;;14.90;99.90;;;;;;5041876;28;20108;-77
2023/06/24 00:30:01;;;;;;;6.43;4.93;;;14.80;99.90;;;;;;5042869;28;20494;-78
2023/06/24 00:32:26;;;;;;;7.15;5.78;;;14.70;99.90;;;;;;5039992;28;20120;-77
2023/06/24 00:34:52;;;;;;;7.78;6.53;;;14.70;99.90;;;;;;5039791;28;20450;-78
2023/06/24 00:37:17;;;;;;;8.60;6.55;;;14.60;99.90;;;;;;5043731;28;20033;-77
2023/06/24 00:39:43;;;;;;;9.80;7.45;;;14.60;99.90;;;;;;5041600;28;20037;-77
2023/06/24 00:42:09;;;;;;;7.57;6.75;;;14.70;99.90;;;;;;5036962;28;20087;-76
2023/06/24 00:44:37;;;;;;;14.88;7.65;;;14.70;99.90;;;;;;5041838;28;20056;-77
2023/06/24 00:47:03;;;;;;;5.22;4.35;;;14.70;99.90;;;;;;5042763;28;20060;-77
2023/06/24 00:49:28;;;;;;;6.30;5.35;;;14.70;99.90;;;;;;5041454;28;20045;-76
2023/06/24 00:51:55;;;;;;;6.57;5.38;;;14.60;99.90;;;;;;5042453;28;20049;-77
2023/06/24 00:54:21;;;;;;;6.80;5.15;;;14.60;99.90;;;;;;5039144;28;20483;-77
2023/06/24 00:56:47;;;;;;;6.45;5.15;;;14.50;99.90;;;;;;5041796;28;20108;-77
2023/06/24 00:59:15;;;;;;;6.22;5.03;;;14.50;99.90;;;;;;5038068;28;20083;-76
2023/06/24 01:01:40;;;;;;;5.90;5.20;;;14.50;99.90;;;;;;5040623;28;20068;-77
2023/06/24 01:04:06;;;;;;;10.23;5.35;;;14.40;99.90;;;;;;5040717;28;20059;-77
2023/06/24 01:06:35;;;;;;;6.75;5.32;;;14.40;99.90;;;;;;5037963;28;20393;-77
2023/06/24 01:09:02;;;;;;;6.53;5.80;;;14.30;99.90;;;;;;5041163;28;20437;-77
2023/06/24 01:11:31;;;;;;;9.35;5.88;;;14.40;99.90;;;;;;5039482;28;20047;-77
2023/06/24 01:13:57;;;;;;;7.45;6.45;;;14.40;99.90;;;;;;5040803;28;20399;-77
2023/06/24 01:16:45;;;;;;;8.60;7.07;;;14.40;99.90;;;;;;5038059;28;20083;-76
2023/06/24 01:19:24;;;;;;;8.05;6.95;;;14.50;99.90;;;;;;5039862;28;20048;-77
2023/06/24 01:21:52;;;;;;;8.98;8.07;;;14.50;99.90;;;;;;5037847;28;20119;-77
2023/06/24 01:24:30;;;;;;;7.10;6.28;;;14.50;99.90;;;;;;5026834;28;20081;-77
2023/06/24 01:27:44;;;;;;;9.13;6.72;;;14.50;99.90;;;;;;5055233;28;20041;-77
2023/06/24 01:30:49;;;;;;;8.68;6.28;;;14.50;99.90;;;;;;5042855;28;20487;-79
2023/06/24 01:33:25;;;;;;;7.10;6.50;;;14.50;99.90;;;;;;5041633;28;20394;-78
2023/06/24 01:35:51;;;;;;;6.72;6.07;;;14.50;99.90;;;;;;5043033;28;20099;-79
2023/06/24 01:38:35;;;;;;;6.93;6.28;;;14.50;99.90;;;;;;5042622;28;20048;-79
2023/06/24 01:41:04;;;;;;;9.57;7.20;;;14.40;99.90;;;;;;5044446;28;20041;-78
2023/06/24 01:43:31;;;;;;;7.53;6.22;;;14.50;99.90;;;;;;5047506;28;20077;-79
2023/06/24 01:45:58;;;;;;;6.40;5.78;;;14.50;99.90;;;;;;5040658;28;20037;-79
2023/06/24 01:48:35;;;;;;;8.77;4.60;;;14.50;99.90;;;;;;5039358;28;20512;-78
2023/06/24 01:51:07;;;;;;;6.88;5.47;;;14.50;99.90;;;;;;5042528;28;20043;-78
2023/06/24 01:53:36;;;;;;;6.53;5.95;;;14.50;99.90;;;;;;5043422;28;20033;-79
2023/06/24 01:56:03;;;;;;;11.63;7.70;;;14.50;99.90;;;;;;5042805;28;20523;-78
2023/06/24 01:58:30;;;;;;;12.00;8.05;;;14.50;99.90;;;;;;5041979;28;20053;-78
2023/06/24 02:00:57;;;;;;;11.90;7.03;;;14.50;99.90;;;;;;5043243;28;20045;-78
2023/06/24 02:03:24;;;;;;;8.52;7.82;;;14.90;99.90;;;;;;5039433;28;20029;-78
2023/06/24 02:05:51;;;;;;;9.82;8.05;;;14.60;99.90;;;;;;5040570;28;20052;-78
2023/06/24 02:08:19;;;;;;;9.13;8.25;;;14.70;99.90;;;;;;5039372;28;20152;-78
2023/06/24 02:10:46;;;;;;;9.85;8.82;;;14.70;99.90;;;;;;5045189;28;20120;-78
2023/06/24 02:13:12;;;;;;;10.60;7.70;;;14.70;99.90;;;;;;5044174;28;20040;-78
2023/06/24 02:15:40;;;;;;;10.38;9.23;;;14.70;99.90;;;;;;5046067;28;20049;-78
2023/06/24 02:18:09;;;;;;;11.55;9.68;;;14.70;99.90;;;;;;5043082;28;20391;-78
2023/06/24 02:20:36;;;;;;;10.35;9.45;;;14.70;99.90;;;;;;5045590;28;20063;-78
2023/06/24 02:23:02;;;;;;;11.80;9.80;;;14.70;99.90;;;;;;5042744;28;20117;-79
2023/06/24 02:25:28;;;;;;;9.98;8.98;;;14.80;99.90;;;;;;5045613;28;20045;-78
2023/06/24 02:27:55;;;;;;;10.52;9.63;;;14.80;99.90;;;;;;5046884;28;20148;-78
2023/06/24 02:30:22;;;;;;;9.85;8.85;;;14.80;99.90;;;;;;5047001;28;20041;-78
2023/06/24 02:32:48;;;;;;;11.50;10.13;;;14.80;99.90;;;;;;5044684;28;20141;-78
2023/06/24 02:35:14;;;;;;;11.57;7.60;;;14.80;99.90;;;;;;5046749;28;20645;-79
2023/06/24 02:37:39;;;;;;;6.65;5.95;;;14.80;99.90;;;;;;5046060;28;20040;-79
2023/06/24 02:40:07;;;;;;;9.70;7.95;;;14.70;99.90;;;;;;5046440;28;20103;-78
2023/06/24 02:42:33;;;;;;;11.25;9.45;;;14.60;99.90;;;;;;5040415;28;20462;-79
2023/06/24 02:44:59;;;;;;;10.48;9.57;;;14.70;99.90;;;;;;5045201;28;20140;-78
2023/06/24 02:47:25;;;;;;;10.70;9.60;;;14.70;99.90;;;;;;5044409;28;20059;-78
2023/06/24 02:49:52;;;;;;;10.90;9.30;;;14.70;99.90;;;;;;5043580;28;20075;-79
2023/06/24 02:52:17;;;;;;;10.40;9.25;;;14.70;99.90;;;;;;5046487;28;20053;-78
2023/06/24 02:54:44;;;;;;;10.45;9.40;;;14.70;99.90;;;;;;5049234;28;20041;-78
2023/06/24 02:57:10;;;;;;;9.15;8.13;;;14.70;99.90;;;;;;5048109;28;20060;-79
2023/06/24 02:59:37;;;;;;;13.90;9.05;;;14.70;99.90;;;;;;5060503;28;20036;-78
2023/06/24 03:02:04;;;;;;;10.35;7.82;;;14.70;99.90;;;;;;5045520;28;20407;-78
2023/06/24 03:04:30;;;;;;;8.27;7.05;;;14.70;99.90;;;;;;5042517;28;20041;-78
2023/06/24 03:06:57;;;;;;;9.60;6.60;;;14.70;99.90;;;;;;5043640;28;20112;-78
2023/06/24 03:09:23;;;;;;;7.30;5.82;;;14.60;99.90;;;;;;5044026;28;20108;-78
2023/06/24 03:11:48;;;;;;;11.02;7.70;;;14.60;99.90;;;;;;5044088;28;20518;-78
2023/06/24 03:14:14;;;;;;;12.25;9.10;;;14.50;99.90;;;;;;5047589;28;20075;-78
2023/06/24 03:16:40;;;;;;;15.43;11.10;;;14.50;99.90;;;;;;5046106;28;20040;-78
2023/06/24 03:19:05;;;;;;;12.20;9.68;;;14.50;99.90;;;;;;5062265;28;20049;-78
2023/06/24 03:21:31;;;;;;;10.10;7.50;;;14.50;99.90;;;;;;5043508;28;20037;-78
2023/06/24 03:23:58;;;;;;;10.70;6.38;;;14.50;99.90;;;;;;5043039;28;20111;-78
2023/06/24 03:26:31;;;;;;;10.60;6.82;;;14.40;99.90;;;;;;5046805;28;20115;-78
2023/06/24 03:28:57;;;;;;;9.73;7.15;;;14.30;99.90;;;;;;5042519;28;20061;-78
2023/06/24 03:31:23;;;;;;;16.85;9.98;;;14.20;99.90;;;;;;5044772;28;20144;-79
2023/06/24 03:33:49;;;;;;;13.70;10.45;;;14.20;99.90;;;;;;5043418;28;20485;-78
2023/06/24 03:36:14;;;;;;;10.73;9.68;;;14.30;99.90;;;;;;5045072;28;20156;-79
2023/06/24 03:38:40;;;;;;;12.30;9.15;;;14.20;99.90;;;;;;5043945;28;20052;-79
2023/06/24 03:41:06;;;;;;;13.13;8.23;;;14.30;99.90;;;;;;5045224;28;20073;-79
2023/06/24 03:43:31;;;;;;;8.45;7.70;;;14.20;99.90;;;;;;5045697;28;20071;-79
2023/06/24 03:45:57;;;;;;;9.95;9.05;;;14.20;99.90;;;;;;5044740;28;20037;-79
2023/06/24 03:48:22;;;;;;;15.75;8.70;;;14.30;99.90;;;;;;5043902;28;20024;-78
2023/06/24 03:50:48;;;;;;;11.00;7.50;;;14.20;99.90;;;;;;5044104;28;20502;-77
2023/06/24 03:53:13;;;;;;;11.63;9.20;;;14.30;99.90;;;;;;5044352;28;20041;-78
2023/06/24 03:55:39;;;;;;;13.65;8.85;;;14.40;99.90;;;;;;5043305;28;20392;-78
2023/06/24 03:58:05;;;;;;;10.20;8.60;;;14.30;99.90;;;;;;5043916;28;20471;-79
2023/06/24 04:00:30;;;;;;;11.90;8.90;;;14.40;99.90;;;;;;5045111;28;20571;-79
2023/06/24 04:02:56;;;;;;;13.30;8.00;;;14.40;99.90;;;;;;5046391;28;20037;-78
2023/06/24 04:05:22;;;;;;;11.80;8.55;;;14.40;99.90;;;;;;5041829;28;20040;-78
2023/06/24 04:07:50;;;;;;;18.15;10.82;;;14.40;99.90;;;;;;5042640;28;20507;-78
2023/06/24 04:10:17;;;;;;;13.30;9.15;;;14.50;99.90;;;;;;5045805;28;20176;-78
2023/06/24 04:12:44;;;;;;;15.82;10.65;;;14.90;99.90;;;;;;5041426;28;20049;-78
2023/06/24 04:15:09;;;;;;;13.60;10.35;;;15.10;99.90;;;;;;5044720;28;20052;-78
2023/06/24 04:17:35;;;;;;;11.15;9.80;;;15.20;99.90;;;;;;5044597;28;21070;-78
2023/06/24 04:20:04;;;;;;;10.98;9.88;;;15.30;99.90;;;;;;5046577;28;20048;-78
2023/06/24 04:22:30;;;;;;;11.18;9.98;;;15.60;99.90;;;;;;5043046;28;20059;-79
2023/06/24 04:24:55;;;;;;;12.40;10.88;;;15.90;99.90;;;;;;5045311;28;20179;-78
2023/06/24 04:27:21;;;;;;;12.48;11.38;;;16.10;99.90;;;;;;5041798;28;20100;-79
2023/06/24 04:29:46;;;;;;;11.70;10.50;;;16.30;99.90;;;;;;5045679;28;20037;-79
2023/06/24 04:32:12;;;;;;;14.07;11.00;;;16.60;99.90;;;;;;5045248;28;20048;-79
2023/06/24 04:34:37;;;;;;;13.80;10.48;;;17.20;99.90;;;;;;5043077;28;20044;-79
2023/06/24 04:37:03;;;;;;;11.55;10.43;;;18.10;99.90;;;;;;5044270;28;20041;-79
2023/06/24 04:39:29;;;;;;;10.52;9.43;;;19.30;99.90;;;;;;5045634;28;20128;-79
2023/06/24 04:41:54;;;;;;;10.75;9.75;;;20.40;99.90;;;;;;5047532;28;20851;-79
2023/06/24 04:44:20;;;;;;;10.63;9.18;;;20.80;99.90;;;;;;5043816;28;20033;-79
2023/06/24 04:46:45;;;;;;;12.20;9.63;;;21.40;99.90;;;;;;5043281;28;20032;-79
2023/06/24 04:49:11;;;;;;;13.32;9.70;;;21.90;99.90;;;;;;5043762;28;20403;-79
2023/06/24 04:51:37;;;;;;;13.60;10.57;;;22.70;99.90;;;;;;5045501;28;20045;-79
2023/06/24 04:54:03;;;;;;;11.30;10.00;;;23.40;99.90;;;;;;5046762;28;20105;-79
2023/06/24 04:56:29;;;;;;;11.85;9.73;;;24.00;99.90;;;;;;5044058;28;20504;-79
2023/06/24 04:58:55;;;;;;;10.48;9.35;;;24.50;99.90;;;;;;5043577;28;20032;-79
2023/06/24 05:01:21;;;;;;;11.75;10.43;;;25.10;99.90;;;;;;5045744;28;20166;-79
2023/06/24 05:03:47;;;;;;;11.77;10.52;;;25.60;99.90;;;;;;5042865;28;20140;-79
2023/06/24 05:06:12;;;;;;;12.10;11.00;;;25.70;99.90;;;;;;5043581;28;20128;-81
2023/06/24 05:08:38;;;;;;;10.38;9.48;;;26.00;99.90;;;;;;5047046;28;20147;-79
2023/06/24 05:11:04;;;;;;;13.88;10.45;;;26.60;99.90;;;;;;5043677;28;20128;-79
2023/06/24 05:13:29;;;;;;;11.07;9.93;;;26.80;99.90;;;;;;5045279;28;20072;-79
2023/06/24 05:15:55;;;;;;;11.45;10.25;;;26.00;99.90;;;;;;5042252;28;20455;-79
2023/06/24 05:18:20;;;;;;;11.73;10.63;;;25.20;99.90;;;;;;5041471;28;20182;-79
2023/06/24 05:20:46;;;;;;;11.55;10.50;;;25.00;99.90;;;;;;5039479;28;20094;-78
2023/06/24 05:23:11;;;;;;;11.52;10.30;;;25.50;99.90;;;;;;5046613;28;20050;-79
2023/06/24 05:25:37;;;;;;;11.27;10.30;;;25.60;99.90;;;;;;5045728;28;20052;-78
2023/06/24 05:28:02;;;;;;;12.27;11.15;;;25.30;99.90;;;;;;5045135;28;20075;-78
2023/06/24 05:30:28;;;;;;;11.75;10.52;;;25.10;99.90;;;;;;5045046;28;20045;-79
2023/06/24 05:32:54;;;;;;;11.77;10.55;;;24.80;99.90;;;;;;5043347;28;20045;-79
2023/06/24 05:35:19;;;;;;;11.07;10.07;;;24.50;99.90;;;;;;5042469;28;20037;-78
2023/06/24 05:37:45;;;;;;;12.15;10.35;;;24.20;99.90;;;;;;5038057;28;20097;-79
2023/06/24 05:40:12;;;;;;;13.80;10.70;;;24.10;99.90;;;;;;5042614;28;20067;-79
2023/06/24 05:42:38;;;;;;;16.58;11.10;;;24.00;99.90;;;;;;5044956;28;20052;-80
2023/06/24 05:45:04;;;;;;;19.92;10.00;;;23.90;99.90;;;;;;5045491;28;20033;-80
2023/06/24 05:47:30;;;;;;;15.55;11.43;;;24.00;99.90;;;;;;5049695;28;20052;-80
2023/06/24 05:49:55;;;;;;;11.30;9.95;;;23.90;99.90;;;;;;5048527;28;20033;-80
2023/06/24 05:52:21;;;;;;;10.80;9.88;;;23.90;99.90;;;;;;5046749;28;20049;-80
2023/06/24 05:54:46;;;;;;;11.18;9.73;;;23.90;99.90;;;;;;5045952;28;20037;-80
2023/06/24 05:57:12;;;;;;;15.65;10.10;;;23.90;99.90;;;;;;5047646;28;20045;-80
2023/06/24 05:59:37;;;;;;;11.10;10.13;;;23.90;99.90;;;;;;5048975;28;20868;-78
2023/06/24 06:02:03;;;;;;;21.70;10.88;;;23.90;99.90;;;;;;5047439;28;20040;-80
2023/06/24 06:04:29;;;;;;;15.95;9.98;;;24.00;99.90;;;;;;5048371;28;20041;-80
2023/06/24 06:06:54;;;;;;;10.85;9.85;;;23.90;99.90;;;;;;5048444;28;20513;-79
2023/06/24 06:09:21;;;;;;;16.40;10.65;;;24.00;99.90;;;;;;5044345;28;20033;-76
2023/06/24 06:11:47;;;;;;;10.32;8.98;;;24.10;99.90;;;;;;5043661;28;20514;-79
2023/06/24 06:14:13;;;;;;;9.18;8.13;;;24.20;99.90;;;;;;5043514;28;20402;-80
2023/06/24 06:16:39;;;;;;;9.68;8.68;;;24.20;99.90;;;;;;5046887;28;20044;-80
2023/06/24 06:19:04;;;;;;;9.68;8.35;;;24.30;99.90;;;;;;5045997;28;20128;-77
2023/06/24 06:21:30;;;;;;;10.63;9.45;;;24.40;99.90;;;;;;5043860;28;20047;-79
2023/06/24 06:23:56;;;;;;;9.10;8.27;;;24.50;99.90;;;;;;5045111;28;20063;-77
2023/06/24 06:26:21;;;;;;;11.85;8.95;;;24.60;99.90;;;;;;5046786;28;20045;-78
2023/06/24 06:28:47;;;;;;;9.82;8.93;;;24.70;99.90;;;;;;5048556;28;20044;-78
2023/06/24 06:31:14;;;;;;;9.52;8.63;;;25.00;99.90;;;;;;5045633;28;20069;-80
2023/06/24 06:33:39;;;;;;;8.25;7.55;;;25.20;99.90;;;;;;5047086;28;20052;-79
2023/06/24 06:36:05;;;;;;;13.85;8.38;;;25.50;99.90;;;;;;5045116;28;20037;-79
2023/06/24 06:38:32;;;;;;;10.55;9.55;;;25.60;99.90;;;;;;5049436;28;20940;-79
2023/06/24 06:40:58;;;;;;;9.55;8.50;;;25.80;99.90;;;;;;5050709;28;20040;-77
2023/06/24 06:43:23;;;;;;;11.55;9.10;;;25.90;99.90;;;;;;5049838;28;20499;-80
2023/06/24 06:45:49;;;;;;;10.52;9.57;;;25.90;99.90;;;;;;5049556;28;20132;-79
2023/06/24 06:48:14;;;;;;;12.80;10.35;;;25.90;99.90;;;;;;5048732;28;20132;-79
2023/06/24 06:50:40;;;;;;;10.93;9.85;;;25.90;99.90;;;;;;5049050;28;20064;-80
2023/06/24 06:53:05;;;;;;;11.25;10.25;;;25.90;99.90;;;;;;5048930;28;20040;-78
2023/06/24 06:55:31;;;;;;;11.27;10.15;;;26.00;99.90;;;;;;5050050;28;20382;-78
2023/06/24 06:57:57;;;;;;;11.77;9.48;;;26.30;99.90;;;;;;5048788;28;20029;-78
2023/06/24 07:00:22;;;;;;;13.25;10.35;;;26.40;99.90;;;;;;5049234;28;20056;-79
2023/06/24 07:02:48;;;;;;;10.63;9.38;;;26.50;99.90;;;;;;5045647;28;20040;-79
2023/06/24 07:05:13;;;;;;;12.02;9.10;;;26.70;99.90;;;;;;5046272;28;20048;-78
2023/06/24 07:07:39;;;;;;;12.32;8.00;;;26.90;99.90;;;;;;5046111;28;20486;-82
2023/06/24 07:10:05;;;;;;;7.65;6.85;;;27.00;99.90;;;;;;5045289;28;20032;-79
2023/06/24 07:12:31;;;;;;;9.95;7.60;;;27.10;99.90;;;;;;5046454;28;20059;-80
2023/06/24 07:14:56;;;;;;;9.02;7.00;;;27.10;99.90;;;;;;5049641;28;20104;-80
2023/06/24 07:17:22;;;;;;;10.55;6.57;;;27.20;99.80;;;;;;5044892;28;20067;-81
2023/06/24 07:19:48;;;;;;;7.03;6.32;;;27.30;98.90;;;;;;5045358;28;20033;-79
2023/06/24 07:22:14;;;;;;;6.97;6.28;;;27.60;99.00;;;;;;5046148;28;20079;-81
2023/06/24 07:24:41;;;;;;;6.28;5.72;;;27.60;99.10;;;;;;5044565;28;20472;-79
2023/06/24 07:27:06;;;;;;;8.68;6.82;;;27.50;99.00;;;;;;5046902;28;20045;-80
2023/06/24 07:29:32;;;;;;;10.90;7.40;;;27.20;98.60;;;;;;5044616;28;20397;-79
2023/06/24 07:31:58;;;;;;;7.95;7.00;;;26.90;98.70;;;;;;5047619;28;20037;-80
2023/06/24 07:34:23;;;;;;;7.57;6.18;;;26.70;99.00;;;;;;5040272;28;20048;-80
2023/06/24 07:36:50;;;;;;;8.02;6.55;;;26.80;99.40;;;;;;5044754;28;20040;-79
2023/06/24 07:39:16;;;;;;;5.90;5.28;;;26.80;99.30;;;;;;5043234;28;20042;-80
2023/06/24 07:41:42;;;;;;;7.30;6.10;;;27.00;98.80;;;;;;5039448;28;20134;-80
2023/06/24 07:44:08;;;;;;;10.75;6.75;;;27.20;99.10;;;;;;5040808;28;20045;-81
2023/06/24 07:46:34;;;;;;;6.75;6.10;;;27.30;99.10;;;;;;5039995;28;20044;-81
2023/06/24 07:49:00;;;;;;;6.53;5.93;;;27.50;98.90;;;;;;5043318;28;20037;-80
2023/06/24 07:51:25;;;;;;;6.80;5.78;;;27.60;98.40;;;;;;5039163;28;20045;-80
2023/06/24 07:53:51;;;;;;;9.90;5.57;;;27.70;98.10;;;;;;5039051;28;20403;-80
2023/06/24 07:56:16;;;;;;;7.93;5.75;;;27.90;98.40;;;;;;5038315;28;20382;-79
2023/06/24 07:58:42;;;;;;;6.20;5.47;;;28.00;97.50;;;;;;5040907;28;20045;-81
2023/06/24 08:01:08;;;;;;;6.88;6.25;;;28.00;97.50;;;;;;5040973;28;20037;-80
2023/06/24 08:03:34;;;;;;;6.97;6.38;;;27.90;97.10;;;;;;5045282;28;20029;-80
2023/06/24 08:05:59;;;;;;;8.88;5.70;;;27.90;97.10;;;;;;5044961;28;20041;-80
2023/06/24 08:08:25;;;;;;;6.00;5.47;;;28.00;97.00;;;;;;5040028;28;20094;-80
2023/06/24 08:10:50;;;;;;;4.68;4.28;;;28.10;97.10;;;;;;5043014;28;20623;-80
2023/06/24 08:13:16;;;;;;;5.13;4.63;;;28.30;97.20;;;;;;5040726;28;20044;-80
2023/06/24 08:15:42;;;;;;;11.68;4.88;;;28.40;96.80;;;;;;5028380;28;20045;-80
2023/06/24 08:18:07;;;;;;;8.65;4.95;;;28.50;97.10;;;;;;5043242;28;20056;-82
2023/06/24 08:20:33;;;;;;;5.22;4.35;;;28.60;96.80;;;;;;5043575;28;20048;-80
2023/06/24 08:22:58;;;;;;;6.50;4.65;;;28.60;96.40;;;;;;5043119;28;20029;-81
2023/06/24 08:25:24;;;;;;;8.75;4.07;;;28.60;96.00;;;;;;5047286;28;20060;-81
2023/06/24 08:27:49;;;;;;;4.63;2.95;;;28.60;95.90;;;;;;5045137;28;20198;-80
2023/06/24 08:30:15;;;;;;;4.85;3.88;;;28.60;94.20;;;;;;5043943;28;20064;-80
2023/06/24 08:32:41;;;;;;;3.22;2.92;;;28.70;94.30;;;;;;5042203;28;20045;-81
2023/06/24 08:35:09;;;;;;;4.60;2.50;;;28.90;94.80;;;;;;5042127;28;20037;-81
2023/06/24 08:37:34;;;;;;;3.97;1.90;;;29.00;93.50;;;;;;5040697;28;20041;-81
2023/06/24 08:40:00;;;;;;;8.20;1.80;;;29.20;91.70;;;;;;5039282;28;20044;-81
2023/06/24 08:42:25;;;;;;;2.30;2.00;;;29.10;91.90;;;;;;5041768;28;20511;-80
2023/06/24 08:44:51;;;;;;;2.92;2.50;;;29.20;92.00;;;;;;5041883;28;20041;-78
2023/06/24 08:47:18;;;;;;;4.07;2.60;;;29.20;91.10;;;;;;5043528;28;20056;-83
2023/06/24 08:49:49;;;;;;;2.58;2.20;;;29.30;91.50;;;;;;5042485;28;20041;-80
2023/06/24 08:52:16;;;;;;;2.10;1.90;;;29.20;91.70;;;;;;5045002;28;20084;-79
2023/06/24 08:54:46;;;;;;;5.30;2.10;;;29.00;92.00;;;;;;5045940;28;20056;-81
2023/06/24 08:57:14;;;;;;;3.60;1.77;;;29.00;91.80;;;;;;5043336;28;20535;-79
2023/06/24 08:59:41;;;;;;;4.78;1.77;;;29.00;92.10;;;;;;5043571;28;20068;-80
2023/06/24 09:02:07;;;;;;;3.53;1.83;;;28.90;90.70;;;;;;5043848;28;20360;-81
2023/06/24 09:04:32;;;;;;;2.38;1.40;;;28.90;91.40;;;;;;5038308;28;20076;-80
2023/06/24 09:06:58;;;;;;;2.08;1.60;;;28.80;91.40;;;;;;5041313;28;20043;-80
2023/06/24 09:09:24;;;;;;;3.10;2.22;;;28.90;91.20;;;;;;5043654;28;20037;-79
2023/06/24 09:12:01;;;;;;;5.95;2.35;;;28.90;90.40;;;;;;5046115;28;20052;-78
2023/06/24 09:14:29;;;;;;;2.70;1.98;;;28.80;90.80;;;;;;5041773;28;20107;-80
2023/06/24 09:16:56;;;;;;;2.15;1.80;;;28.80;91.00;;;;;;5043803;28;20147;-80
2023/06/24 09:19:29;;;;;;;6.32;2.13;;;28.70;90.90;;;;;;5046098;28;20120;-79
2023/06/24 09:22:04;;;;;;;2.60;2.40;;;28.80;90.70;;;;;;5048481;28;20394;-78
2023/06/24 09:24:35;;;;;;;3.40;1.77;;;28.70;90.30;;;;;;5047069;28;20059;-80
2023/06/24 09:27:01;;;;;;;2.58;1.90;;;28.70;90.40;;;;;;5048161;28;20036;-80
2023/06/24 09:29:28;;;;;;;3.03;2.00;;;28.70;90.50;;;;;;5050188;28;20040;-79
2023/06/24 09:31:55;;;;;;;3.67;2.10;;;28.70;90.30;;;;;;5048203;28;20045;-79
2023/06/24 09:34:21;;;;;;;5.05;2.22;;;28.70;90.40;;;;;;5045389;28;20104;-81
2023/06/24 09:36:54;;;;;;;2.50;1.92;;;28.70;90.40;;;;;;5043779;28;20136;-78
2023/06/24 09:39:31;;;;;;;4.28;1.70;;;28.80;90.40;;;;;;5047059;28;20083;-79
2023/06/24 09:41:57;;;;;;;3.17;1.80;;;28.90;90.70;;;;;;5047156;28;20352;-74
2023/06/24 09:44:24;;;;;;;3.53;2.53;;;29.00;90.90;;;;;;5047841;28;20072;-78
2023/06/24 09:46:49;;;;;;;2.03;1.48;;;29.10;91.40;;;;;;5045542;28;20450;-80
2023/06/24 09:49:15;;;;;;;4.68;2.38;;;29.10;91.40;;;;;;5045973;28;20040;-78
2023/06/24 09:51:44;;;;;;;5.22;2.55;;;29.20;91.50;;;;;;5045214;28;20941;-80
2023/06/24 09:54:12;;;;;;;2.97;2.70;;;29.10;90.60;;;;;;5045538;28;20072;-80
2023/06/24 09:56:46;;;;;;;3.05;2.15;;;29.00;90.20;;;;;;5046332;28;20041;-79
2023/06/24 09:59:13;;;;;;;2.47;2.25;;;29.00;91.00;;;;;;5048138;28;20043;-80
2023/06/24 10:01:41;;;;;;;5.60;2.80;;;29.00;91.50;;;;;;5043736;28;20042;-81
2023/06/24 10:04:08;;;;;;;5.10;2.78;;;29.20;91.40;;;;;;5044690;28;20044;-81
2023/06/24 10:06:34;;;;;;;4.03;2.60;;;29.30;91.50;;;;;;5042936;28;20025;-80
2023/06/24 10:09:04;;;;;;;4.03;2.60;;;29.20;90.70;;;;;;5045836;28;20056;-79
2023/06/24 10:11:30;;;;;;;3.67;3.00;;;29.20;91.00;;;;;;5046644;28;20045;-80
2023/06/24 10:13:56;;;;;;;4.93;3.17;;;29.30;91.00;;;;;;5046312;28;20467;-79
2023/06/24 10:16:22;;;;;;;4.65;3.70;;;29.30;91.20;;;;;;5045395;28;20037;-80
2023/06/24 10:18:48;;;;;;;8.13;3.60;;;29.20;91.10;;;;;;5045632;28;20037;-80
2023/06/24 10:21:16;;;;;;;4.60;2.65;;;29.20;90.90;;;;;;5046044;28;20060;-80
2023/06/24 10:23:49;;;;;;;4.88;3.22;;;29.20;91.10;;;;;;5046047;28;20037;-80
2023/06/24 10:26:36;;;;;;;3.10;2.45;;;29.20;91.20;;;;;;5043950;28;20050;-80
2023/06/24 10:29:07;;;;;;;5.22;3.33;;;29.40;91.00;;;;;;5044277;28;20395;-79
2023/06/24 10:31:39;;;;;;;4.47;2.97;;;29.50;90.90;;;;;;5043728;28;20538;-80
2023/06/24 10:34:26;;;;;;;3.08;2.63;;;29.50;91.20;;;;;;5045413;28;20102;-80
2023/06/24 10:37:03;;;;;;;7.25;2.80;;;29.60;92.30;;;;;;5044736;28;20040;-79
2023/06/24 10:39:57;;;;;;;4.72;2.65;;;29.60;91.90;;;;;;5048461;28;20037;-80
2023/06/24 10:42:31;;;;;;;3.10;2.80;;;29.70;92.20;;;;;;5046109;28;20132;-80
2023/06/24 10:45:09;;;;;;;5.10;2.95;;;29.80;91.70;;;;;;5046976;28;20053;-80
2023/06/24 10:47:42;;;;;;;2.67;2.47;;;29.90;92.20;;;;;;5042007;28;20042;-81
2023/06/24 10:50:09;;;;;;;3.55;2.67;;;30.10;92.10;;;;;;5045244;28;20040;-80
2023/06/24 10:52:40;;;;;;;3.72;2.15;;;30.10;90.40;;;;;;5043253;28;20052;-79
2023/06/24 10:55:07;;;;;;;7.43;2.30;;;29.90;86.50;;;;;;5042878;28;20411;-80
2023/06/24 10:57:32;;;;;;;3.13;2.08;;;29.90;87.50;;;;;;5039872;28;20059;-80
2023/06/24 10:59:58;;;;;;;3.67;2.35;;;29.90;88.30;;;;;;5033928;28;20041;-81
2023/06/24 11:02:25;;;;;;;5.50;2.38;;;30.10;89.10;;;;;;5044450;28;20406;-81
2023/06/24 11:04:53;;;;;;;3.70;2.33;;;30.10;88.90;;;;;;5045772;28;20565;-80
2023/06/24 11:07:23;;;;;;;3.92;2.40;;;30.20;89.90;;;;;;5042654;28;20099;-80
2023/06/24 11:09:55;;;;;;;4.25;2.53;;;30.20;88.00;;;;;;5044177;28;20518;-80
2023/06/24 11:12:28;;;;;;;6.68;2.78;;;30.30;90.70;;;;;;5045424;28;20065;-80
2023/06/24 11:15:05;;;;;;;3.08;2.05;;;30.30;90.10;;;;;;5047274;28;20029;-80
2023/06/24 11:17:30;;;;;;;4.60;3.22;;;30.20;90.00;;;;;;5044325;28;20048;-80
2023/06/24 11:19:57;;;;;;;3.70;2.13;;;30.00;89.80;;;;;;5043044;28;20111;-81
2023/06/24 11:22:24;;;;;;;4.13;2.10;;;29.60;89.50;;;;;;5048974;28;20151;-77
2023/06/24 11:24:50;;;;;;;2.60;2.33;;;29.40;90.40;;;;;;5043178;28;20075;-80
2023/06/24 11:27:16;;;;;;;6.28;2.00;;;29.20;90.50;;;;;;5042807;28;20048;-81
2023/06/24 11:29:42;;;;;;;4.95;1.80;;;29.00;90.80;;;;;;5043022;28;20037;-82
2023/06/24 11:32:09;;;;;;;7.07;2.10;;;28.80;91.30;;;;;;5045376;28;20037;-79
2023/06/24 11:34:38;;;;;;;4.10;2.58;;;28.70;91.80;;;;;;5045699;28;20083;-79
2023/06/24 11:37:18;;;;;;;3.10;2.50;;;28.70;91.60;;;;;;5043088;28;20037;-81
2023/06/24 11:39:44;;;;;;;3.50;3.00;;;28.90;92.20;;;;;;5044199;28;20049;-81
2023/06/24 11:42:10;;;;;;;6.03;3.03;;;29.30;90.60;;;;;;5038623;28;20041;-80
2023/06/24 11:44:43;;;;;;;3.15;2.65;;;29.10;91.00;;;;;;5044214;28;20136;-79
2023/06/24 11:47:10;;;;;;;3.78;2.85;;;29.00;91.00;;;;;;5047076;28;20041;-80
2023/06/24 11:49:53;;;;;;;4.25;2.80;;;28.90;91.70;;;;;;5047971;28;20086;-79
2023/06/24 11:52:19;;;;;;;2.97;2.70;;;28.60;92.30;;;;;;5040536;28;20060;-80
2023/06/24 11:54:45;;;;;;;4.15;2.72;;;28.50;92.90;;;;;;5044464;28;20131;-80
2023/06/24 11:57:12;;;;;;;3.95;3.28;;;28.40;92.40;;;;;;5043567;28;20045;-80
2023/06/24 11:59:38;;;;;;;9.32;2.67;;;28.30;92.80;;;;;;5044607;28;20167;-79
2023/06/24 12:02:04;;;;;;;8.93;2.72;;;28.30;92.80;;;;;;5040340;28;20073;-81
2023/06/24 12:05:44;;;;;;;;;;;;;;;;;;;;;
2023/06/24 12:08:12;;;;;;;6.97;2.47;;;28.10;93.60;;;;;;4955450;28;20049;-81
2023/06/24 12:10:39;;;;;;;3.28;2.13;;;28.20;93.90;;;;;;5043804;28;20037;-82
2023/06/24 12:13:08;;;;;;;4.18;2.45;;;28.30;94.00;;;;;;5041312;28;20051;-81
2023/06/24 12:15:34;;;;;;;6.43;3.70;;;28.20;94.00;;;;;;5044652;28;20048;-81
2023/06/24 12:18:01;;;;;;;3.53;2.67;;;28.20;93.70;;;;;;5041833;28;20041;-81
2023/06/24 12:20:26;;;;;;;3.17;2.38;;;28.20;93.10;;;;;;5040248;28;20483;-80
2023/06/24 12:22:52;;;;;;;3.50;2.47;;;28.20;93.80;;;;;;5042237;28;20037;-80
2023/06/24 12:25:18;;;;;;;6.93;2.70;;;28.40;93.80;;;;;;5046344;28;20511;-81
2023/06/24 12:27:44;;;;;;;5.15;3.08;;;28.60;94.00;;;;;;5040135;28;20045;-79
2023/06/24 12:30:10;;;;;;;6.28;3.55;;;28.90;91.80;;;;;;5041838;28;20120;-80
2023/06/24 12:32:36;;;;;;;12.07;3.13;;;29.10;92.30;;;;;;5042985;28;20040;-81
2023/06/24 12:35:03;;;;;;;4.95;2.30;;;29.20;92.40;;;;;;5042300;28;20092;-81
2023/06/24 12:37:32;;;;;;;2.75;2.55;;;29.20;91.60;;;;;;5037151;28;20886;-81
2023/06/24 12:39:59;;;;;;;2.53;2.25;;;29.10;91.50;;;;;;5038743;28;20045;-78
2023/06/24 12:42:25;;;;;;;2.95;2.60;;;28.90;91.30;;;;;;5038830;28;20448;-80
2023/06/24 12:44:51;;;;;;;7.38;2.83;;;28.80;91.40;;;;;;5041045;28;20036;-79